• Join FlightAware (Why Join?)
  • Login
  • US Flag 
06:53AM EDT


 

Airport Tracker/Info


-or-


 

Live Flight TrackerFlight Track Log ✈ N769MB ✈ 03-Jul-2013 ✈ KPVE - KDYR

Flight Track Log - Related Links

Times and Time Zones

All times are in EDT time to prevent confusion due to time zone crossing. See the N769MB flight status page for this flight to view local times or setup timezone preferences in your user account.

Time Position Orientation Groundspeed Altitude Reporting Facility
EDT Latitude Longitude Course Direction KTS MPH feet Rate Location/Type
08:11AM 35.8302 -88.3812 319° Northwest  Level FlightAware Approximate
08:12AM 35.8666 -88.4206 319° Northwest  Level FlightAware Approximate
08:19AM 35.7617 -88.2822 319° Northwest 273 314 4,000  Level Memphis Center
08:20AM 35.8106 -88.3322 320° Northwest 248 285 5,500 1,920 Climbing Memphis Center
08:21AM 35.8403 -88.3725 312° West 202 232 7,900 2,160 Climbing Memphis Center
08:22AM 35.8722 -88.4100 316° Northwest 166 191 9,900 960 Climbing Memphis Center
08:23AM 35.9147 -88.4681 312° West 186 214 9,900  Level Memphis Center
08:24AM 35.9658 -88.5283 316° Northwest 226 260 9,900  Level Memphis Center
08:25AM 36.0167 -88.5836 319° Northwest 243 280 9,900  Level Memphis Center
08:26AM 36.0631 -88.6342 319° Northwest 243 280 9,900  Level Memphis Center
08:27AM 36.0703 -88.7006 278° West 206 237 9,900  Level Memphis Center
08:28AM 36.0631 -88.7753 263° West 205 236 9,900  Level Memphis Center
08:29AM 36.0533 -88.8475 261° West 211 243 9,900  Level Memphis Center
08:30AM 36.0439 -88.9194 261° West 222 255 9,900  Level Memphis Center
08:31AM 36.0217 -88.9867 248° West 222 255 9,900 -300 Level Memphis Center
08:32AM 35.9994 -89.0561 248° West 222 255 9,400 -1,260 Descending Memphis Center
08:33AM 35.9733 -89.1336 247° West 236 272 7,400 -2,100 Descending Memphis Center
08:34AM 35.9489 -89.2161 250° West 250 288 5,200 -2,160 Descending Memphis Center
08:35AM 35.9247 -89.2983 250° West 256 295 3,100 -1,200 Descending Memphis Center
08:36AM 35.9003 -89.3731 248° West 251 289 2,900 -120 Descending Memphis Center
08:37AM 35.8842 -89.4397 253° West 230 265 2,900  Level Memphis Center